createdAt,value
2023-05-05T00:02:18.351Z,97186.69
2023-05-05T00:04:44.749Z,97188.53
2023-05-05T00:07:11.162Z,97190.59
2023-05-05T00:09:37.672Z,97184.31
2023-05-05T00:12:04.236Z,97181.34
2023-05-05T00:14:30.801Z,97184.66
2023-05-05T00:16:57.316Z,97177.31
2023-05-05T00:19:23.836Z,97179.97
2023-05-05T00:21:50.189Z,97178.84
2023-05-05T00:24:16.633Z,97175.16
2023-05-05T00:26:43.088Z,97172.19
2023-05-05T00:29:09.604Z,97170.25
2023-05-05T00:31:39.126Z,97166.50
2023-05-05T00:34:05.699Z,97165.34
2023-05-05T00:36:32.097Z,97171.56
2023-05-05T00:38:58.465Z,97172.66
2023-05-05T00:41:24.877Z,97177.56
2023-05-05T00:43:51.445Z,97179.38
2023-05-05T00:46:17.976Z,97171.84
2023-05-05T00:48:46.490Z,97170.66
2023-05-05T00:51:12.948Z,97171.72
2023-05-05T00:53:39.366Z,97172.66
2023-05-05T00:56:05.942Z,97170.47
2023-05-05T00:58:32.373Z,97169.47
2023-05-05T01:00:58.755Z,97167.81
2023-05-05T01:03:25.388Z,97168.56
2023-05-05T01:05:51.928Z,97178.13
2023-05-05T01:08:18.505Z,97176.47
2023-05-05T01:10:44.943Z,97175.94
2023-05-05T01:13:11.507Z,97173.50
2023-05-05T01:15:38.041Z,97171.84
2023-05-05T01:18:05.636Z,97176.97
2023-05-05T01:20:32.060Z,97166.69
2023-05-05T01:22:58.584Z,97161.03
2023-05-05T01:25:24.944Z,97163.91
2023-05-05T01:27:51.426Z,97166.44
2023-05-05T01:30:17.853Z,97163.44
2023-05-05T01:32:44.235Z,97166.16
2023-05-05T01:35:10.685Z,97167.25
2023-05-05T01:37:38.851Z,97162.94
2023-05-05T01:40:05.457Z,97152.16
2023-05-05T01:42:35.261Z,97154.25
2023-05-05T01:45:01.728Z,97154.50
2023-05-05T01:47:28.142Z,97153.44
2023-05-05T01:49:54.722Z,97151.88
2023-05-05T01:52:21.170Z,97147.03
2023-05-05T01:54:47.540Z,97149.50
2023-05-05T01:57:13.955Z,97148.06
2023-05-05T01:59:40.428Z,97143.19
2023-05-05T02:02:06.882Z,97150.47
2023-05-05T02:04:35.526Z,97140.50
2023-05-05T02:07:02.016Z,97148.59
2023-05-05T02:09:28.595Z,97139.44
2023-05-05T02:11:54.974Z,97145.63
2023-05-05T02:14:22.612Z,97143.22
2023-05-05T02:16:49.006Z,97144.09
2023-05-05T02:19:15.403Z,97139.50
2023-05-05T02:21:41.776Z,97154.59
2023-05-05T02:24:08.185Z,97155.69
2023-05-05T02:26:34.744Z,97146.00
2023-05-05T02:29:01.146Z,97144.66
2023-05-05T02:31:27.938Z,97143.56
2023-05-05T02:33:54.565Z,97146.28
2023-05-05T02:36:20.980Z,97145.47
2023-05-05T02:38:49.336Z,97151.16
2023-05-05T02:41:15.703Z,97154.94
2023-05-05T02:43:42.129Z,97159.56
2023-05-05T02:46:12.607Z,97162.22
2023-05-05T02:48:39.026Z,97154.94
2023-05-05T02:51:12.616Z,97154.94
2023-05-05T02:53:39.042Z,97153.88
2023-05-05T02:56:05.636Z,97140.66
2023-05-05T02:58:32.000Z,97148.44
2023-05-05T03:00:58.471Z,97149.25
2023-05-05T03:03:24.918Z,97146.00
2023-05-05T03:05:51.359Z,97147.63
2023-05-05T03:08:17.769Z,97141.13
2023-05-05T03:10:44.211Z,97139.25
2023-05-05T03:13:10.769Z,97134.38
2023-05-05T03:15:37.209Z,97126.03
2023-05-05T03:18:03.634Z,97130.34
2023-05-05T03:20:30.188Z,97132.25
2023-05-05T03:22:56.616Z,97134.50
2023-05-05T03:25:23.048Z,97139.59
2023-05-05T03:27:49.419Z,97130.19
2023-05-05T03:30:15.843Z,97131.28
2023-05-05T03:32:42.296Z,97124.19
2023-05-05T03:35:08.733Z,97136.84
2023-05-05T03:37:35.139Z,97127.16
2023-05-05T03:40:01.622Z,97129.56
2023-05-05T03:42:30.813Z,97131.16
2023-05-05T03:44:57.302Z,97131.72
2023-05-05T03:47:23.678Z,97128.72
2023-05-05T03:49:50.164Z,97135.22
2023-05-05T03:52:16.555Z,97127.41
2023-05-05T03:54:43.284Z,97125.50
2023-05-05T03:57:09.650Z,97133.88
2023-05-05T03:59:36.275Z,97130.38
2023-05-05T04:02:02.762Z,97131.19
2023-05-05T04:04:29.196Z,97120.69
2023-05-05T04:06:55.691Z,97121.75
2023-05-05T04:09:22.157Z,97123.38
2023-05-05T04:11:48.578Z,97120.13
2023-05-05T04:14:14.941Z,97125.50
2023-05-05T04:16:41.373Z,97126.59
2023-05-05T04:19:07.753Z,97123.66
2023-05-05T04:21:34.759Z,97121.78
2023-05-05T04:24:01.221Z,97118.81
2023-05-05T04:26:27.646Z,97116.91
2023-05-05T04:28:54.040Z,97112.91
2023-05-05T04:31:23.431Z,97112.91
2023-05-05T04:33:49.908Z,97114.78
2023-05-05T04:36:16.300Z,97115.84
2023-05-05T04:38:42.704Z,97114.78
2023-05-05T04:41:09.150Z,97115.31
2023-05-05T04:43:35.996Z,97113.44
2023-05-05T04:46:02.391Z,97116.16
2023-05-05T04:48:30.724Z,97117.75
2023-05-05T04:50:57.296Z,97119.91
2023-05-05T04:53:23.727Z,97121.28
2023-05-05T04:55:50.141Z,97121.28
2023-05-05T04:58:16.567Z,97125.31
2023-05-05T05:00:42.969Z,97120.75
2023-05-05T05:03:09.434Z,97124.00
2023-05-05T05:05:35.906Z,97122.91
2023-05-05T05:08:07.042Z,97128.84
2023-05-05T05:10:33.594Z,97128.81
2023-05-05T05:13:00.065Z,97135.59
2023-05-05T05:15:26.653Z,97128.59
2023-05-05T05:17:53.158Z,97141.47
2023-05-05T05:20:19.621Z,97147.41
2023-05-05T05:22:46.008Z,97137.44
2023-05-05T05:25:12.376Z,97143.09
2023-05-05T05:27:38.863Z,97149.28
2023-05-05T05:30:05.418Z,97156.84
2023-05-05T05:32:31.950Z,97150.63
2023-05-05T05:34:58.416Z,97150.34
2023-05-05T05:37:24.817Z,97146.00
2023-05-05T05:39:51.266Z,97151.13
2023-05-05T05:42:17.677Z,97150.31
2023-05-05T05:44:45.283Z,97152.72
2023-05-05T05:47:14.798Z,97151.09
2023-05-05T05:49:41.209Z,97152.69
2023-05-05T05:52:07.685Z,97143.50
2023-05-05T05:54:34.101Z,97143.78
2023-05-05T05:57:00.676Z,97151.56
2023-05-05T05:59:27.077Z,97149.38
2023-05-05T06:01:53.642Z,97143.44
2023-05-05T06:04:20.060Z,97146.44
2023-05-05T06:06:46.493Z,97151.56
2023-05-05T06:09:13.048Z,97152.16
2023-05-05T06:11:39.587Z,97147.03
2023-05-05T06:14:06.041Z,97151.34
2023-05-05T06:16:32.779Z,97150.47
2023-05-05T06:18:59.723Z,97158.00
2023-05-05T06:21:26.094Z,97155.88
2023-05-05T06:23:55.042Z,97153.97
2023-05-05T06:26:21.511Z,97154.25
2023-05-05T06:28:48.068Z,97153.41
2023-05-05T06:31:14.540Z,97142.97
2023-05-05T06:33:40.954Z,97146.63
2023-05-05T06:36:07.674Z,97145.47
2023-05-05T06:38:34.408Z,97146.53
2023-05-05T06:41:00.836Z,97143.03
2023-05-05T06:43:29.795Z,97140.16
2023-05-05T06:45:56.185Z,97149.22
2023-05-05T06:48:22.856Z,97139.19
2023-05-05T06:50:49.305Z,97137.88
2023-05-05T06:53:17.701Z,97138.59
2023-05-05T06:55:44.092Z,97140.97
2023-05-05T06:58:10.533Z,97136.78
2023-05-05T07:00:39.019Z,97135.59
2023-05-05T07:03:05.506Z,97135.47
2023-05-05T07:05:35.043Z,97137.56
2023-05-05T07:08:01.499Z,97141.31
2023-05-05T07:10:28.093Z,97144.94
2023-05-05T07:12:54.590Z,97134.34
2023-05-05T07:15:28.578Z,97136.88
2023-05-05T07:17:57.976Z,97144.09
2023-05-05T07:20:24.746Z,97135.13
2023-05-05T07:22:51.309Z,97127.56
2023-05-05T07:25:17.780Z,97135.00
2023-05-05T07:27:44.298Z,97134.88
2023-05-05T07:30:15.365Z,97139.25
2023-05-05T07:32:42.979Z,97131.50
2023-05-05T07:35:09.502Z,97136.13
2023-05-05T07:37:35.982Z,97133.34
2023-05-05T07:40:02.466Z,97136.19
2023-05-05T07:42:28.873Z,97132.53
2023-05-05T07:44:55.480Z,97130.00
2023-05-05T07:47:24.126Z,97128.44
2023-05-05T07:49:52.851Z,97126.63
2023-05-05T07:52:21.475Z,97131.31
2023-05-05T07:54:53.833Z,97136.66
2023-05-05T07:57:21.720Z,97129.75
2023-05-05T07:59:48.225Z,97133.50
2023-05-05T08:02:17.532Z,97133.38
2023-05-05T08:04:44.048Z,97126.22
2023-05-05T08:07:10.538Z,97129.59
2023-05-05T08:09:37.028Z,97118.38
2023-05-05T08:12:03.441Z,97118.22
2023-05-05T08:14:29.985Z,97121.16
2023-05-05T08:16:58.465Z,97108.38
2023-05-05T08:19:29.172Z,97108.47
2023-05-05T08:21:55.931Z,97107.03
2023-05-05T08:24:22.526Z,97106.50
2023-05-05T08:26:48.937Z,97109.22
2023-05-05T08:29:15.349Z,97104.41
2023-05-05T08:31:41.796Z,97104.66
2023-05-05T08:34:08.241Z,97108.09
2023-05-05T08:36:34.636Z,97094.28
2023-05-05T08:39:01.433Z,97096.09
2023-05-05T08:41:27.872Z,97089.66
2023-05-05T08:43:54.394Z,97087.81
2023-05-05T08:46:21.079Z,97094.53
2023-05-05T08:48:47.519Z,97078.78
2023-05-05T08:51:13.905Z,97088.97
2023-05-05T08:53:40.504Z,97092.28
2023-05-05T08:56:06.976Z,97089.03
2023-05-05T08:58:36.520Z,97089.03
2023-05-05T09:01:02.917Z,97092.25
2023-05-05T09:03:29.389Z,97092.06
2023-05-05T09:05:55.837Z,97083.38
2023-05-05T09:08:22.421Z,97086.72
2023-05-05T09:10:48.850Z,97082.09
2023-05-05T09:13:15.384Z,97078.28
2023-05-05T09:15:41.834Z,97078.78
2023-05-05T09:18:08.256Z,97073.56
2023-05-05T09:20:34.661Z,97074.38
2023-05-05T09:23:01.076Z,97073.09
2023-05-05T09:25:27.519Z,97065.69
2023-05-05T09:27:53.901Z,97065.34
2023-05-05T09:30:20.430Z,97058.00
2023-05-05T09:32:49.101Z,97062.56
2023-05-05T09:35:15.631Z,97053.47
2023-05-05T09:37:42.899Z,97054.59
2023-05-05T09:40:11.659Z,97049.56
2023-05-05T09:42:38.042Z,97060.91
2023-05-05T09:45:04.507Z,97066.72
2023-05-05T09:47:31.700Z,97053.47
2023-05-05T09:49:59.269Z,97055.53
2023-05-05T09:52:25.669Z,97055.97
2023-05-05T09:54:52.066Z,97051.38
2023-05-05T09:57:18.649Z,97057.00
2023-05-05T09:59:45.105Z,97050.88
2023-05-05T10:02:12.660Z,97044.31
2023-05-05T10:04:39.100Z,97056.25
2023-05-05T10:07:05.700Z,97047.72
2023-05-05T10:09:32.108Z,97050.50
2023-05-05T10:11:58.485Z,97052.50
2023-05-05T10:14:24.904Z,97036.38
2023-05-05T10:16:51.327Z,97045.72
2023-05-05T10:19:20.836Z,97044.59
2023-05-05T10:21:47.315Z,97046.41
2023-05-05T10:24:13.755Z,97042.16
2023-05-05T10:26:40.175Z,97040.69
2023-05-05T10:29:06.551Z,97035.72
2023-05-05T10:31:32.986Z,97028.03
2023-05-05T10:34:01.838Z,97015.34
2023-05-05T10:36:28.371Z,97024.84
2023-05-05T10:38:54.746Z,97029.47
2023-05-05T10:41:21.180Z,97030.38
2023-05-05T10:43:47.661Z,97029.50
2023-05-05T10:46:14.156Z,97021.09
2023-05-05T10:48:40.821Z,97029.00
2023-05-05T10:51:07.239Z,97016.81
2023-05-05T10:53:33.641Z,97006.84
2023-05-05T10:56:00.038Z,97015.66
2023-05-05T10:58:26.454Z,97000.78
2023-05-05T11:00:52.919Z,97000.38
2023-05-05T11:03:19.663Z,96997.41
2023-05-05T11:05:47.497Z,97001.47
2023-05-05T11:08:15.587Z,96999.13
2023-05-05T11:10:45.048Z,96994.53
2023-05-05T11:13:11.666Z,96984.72
2023-05-05T11:15:38.212Z,96982.69
2023-05-05T11:18:07.500Z,96984.28
2023-05-05T11:20:34.666Z,96986.06
2023-05-05T11:23:01.089Z,96985.53
2023-05-05T11:25:27.620Z,96978.34
2023-05-05T11:27:54.121Z,96972.72
2023-05-05T11:30:20.531Z,96983.59
2023-05-05T11:32:47.168Z,96978.94
2023-05-05T11:35:13.650Z,96972.56
2023-05-05T11:37:40.025Z,96970.47
2023-05-05T11:40:09.461Z,96977.56
2023-05-05T11:42:36.168Z,96968.00
2023-05-05T11:45:02.569Z,96966.34
2023-05-05T11:47:29.031Z,96977.06
2023-05-05T11:49:55.593Z,96973.97
2023-05-05T11:52:22.032Z,96975.81
2023-05-05T11:54:48.412Z,96978.03
2023-05-05T11:57:14.820Z,96974.31
2023-05-05T11:59:41.338Z,96969.09
2023-05-05T12:02:07.710Z,96965.59
2023-05-05T12:04:34.340Z,96965.56
2023-05-05T12:07:00.731Z,96962.41
2023-05-05T12:09:27.173Z,96966.53
2023-05-05T12:11:53.690Z,96972.78
2023-05-05T12:14:20.200Z,96962.78
2023-05-05T12:16:48.985Z,96957.25
2023-05-05T12:19:15.515Z,96968.81
2023-05-05T12:21:41.955Z,96963.81
2023-05-05T12:24:08.441Z,96959.94
2023-05-05T12:26:34.876Z,96954.94
2023-05-05T12:29:01.403Z,96951.75
2023-05-05T12:31:27.831Z,96955.75
2023-05-05T12:33:54.571Z,96947.53
2023-05-05T12:36:21.051Z,96949.25
2023-05-05T12:38:47.554Z,96949.56
2023-05-05T12:41:14.102Z,96949.56
2023-05-05T12:43:40.655Z,96942.19
2023-05-05T12:46:07.232Z,96948.25
2023-05-05T12:48:33.710Z,96945.53
2023-05-05T12:51:00.176Z,96951.09
2023-05-05T12:53:26.665Z,96944.34
2023-05-05T12:55:53.073Z,96940.06
2023-05-05T12:58:19.516Z,96934.50
2023-05-05T13:00:46.049Z,96932.56
2023-05-05T13:03:12.742Z,96927.06
2023-05-05T13:05:39.750Z,96920.25
2023-05-05T13:08:06.173Z,96919.13
2023-05-05T13:10:33.849Z,96924.72
2023-05-05T13:13:00.314Z,96914.91
2023-05-05T13:15:26.732Z,96906.69
2023-05-05T13:17:53.202Z,96909.53
2023-05-05T13:20:19.596Z,96919.03
2023-05-05T13:22:46.036Z,96906.16
2023-05-05T13:25:12.595Z,96903.38
2023-05-05T13:27:39.153Z,96908.53
2023-05-05T13:30:10.485Z,96900.25
2023-05-05T13:32:37.319Z,96903.41
2023-05-05T13:35:03.819Z,96897.34
2023-05-05T13:37:30.223Z,96896.66
2023-05-05T13:39:56.601Z,96889.41
2023-05-05T13:42:23.030Z,96880.44
2023-05-05T13:44:49.492Z,96879.75
2023-05-05T13:47:15.936Z,96879.41
2023-05-05T13:49:42.510Z,96882.56
2023-05-05T13:52:08.970Z,96884.75
2023-05-05T13:54:35.506Z,96879.88
2023-05-05T13:57:01.945Z,96874.34
2023-05-05T13:59:28.366Z,96882.13
2023-05-05T14:01:54.789Z,96870.16
2023-05-05T14:04:21.368Z,96865.31
2023-05-05T14:06:47.881Z,96869.47
2023-05-05T14:09:14.299Z,96861.06
2023-05-05T14:11:40.673Z,96870.72
2023-05-05T14:14:07.502Z,96862.97
2023-05-05T14:16:34.000Z,96868.75
2023-05-05T14:19:00.633Z,96866.91
2023-05-05T14:21:27.007Z,96861.88
2023-05-05T14:23:53.550Z,96847.28
2023-05-05T14:26:19.947Z,96849.44
2023-05-05T14:28:48.951Z,96845.25
2023-05-05T14:31:16.168Z,96864.00
2023-05-05T14:33:42.578Z,96855.25
2023-05-05T14:36:08.986Z,96846.84
2023-05-05T14:38:35.538Z,96853.66
2023-05-05T14:41:02.056Z,96854.88
2023-05-05T14:43:28.666Z,96858.00
2023-05-05T14:45:55.180Z,96868.34
2023-05-05T14:48:23.989Z,96867.56
2023-05-05T14:50:50.429Z,96869.50
2023-05-05T14:53:19.628Z,96857.66
2023-05-05T14:55:46.049Z,96868.63
2023-05-05T14:58:12.504Z,96861.38
2023-05-05T15:00:38.938Z,96860.16
2023-05-05T15:03:05.438Z,96872.09
2023-05-05T15:05:31.940Z,96869.78
2023-05-05T15:07:58.477Z,96870.22
2023-05-05T15:10:24.972Z,96869.28
2023-05-05T15:12:51.473Z,96884.22
2023-05-05T15:15:17.926Z,96878.97
2023-05-05T15:17:44.421Z,96872.47
2023-05-05T15:20:10.875Z,96882.13
2023-05-05T15:22:37.577Z,96876.81
2023-05-05T15:25:03.999Z,96877.88
2023-05-05T15:27:30.507Z,96879.97
2023-05-05T15:29:56.992Z,96874.75
2023-05-05T15:32:23.437Z,96876.34
2023-05-05T15:34:50.452Z,96875.03
2023-05-05T15:37:17.073Z,96867.06
2023-05-05T15:39:43.612Z,96874.94
2023-05-05T15:42:10.169Z,96874.28
2023-05-05T15:44:36.655Z,96873.22
2023-05-05T15:47:03.062Z,96866.09
2023-05-05T15:49:29.627Z,96864.03
2023-05-05T15:51:56.033Z,96860.81
2023-05-05T15:54:22.466Z,96858.78
2023-05-05T15:56:48.898Z,96867.59
2023-05-05T15:59:15.543Z,96871.09
2023-05-05T16:01:42.020Z,96863.50
2023-05-05T16:04:08.407Z,96862.78
2023-05-05T16:06:34.824Z,96875.81
2023-05-05T16:09:01.191Z,96870.50
2023-05-05T16:11:27.556Z,96865.75
2023-05-05T16:13:53.982Z,96866.66
2023-05-05T16:16:20.654Z,96868.38
2023-05-05T16:18:47.153Z,96868.91
2023-05-05T16:21:13.958Z,96879.97
2023-05-05T16:23:40.351Z,96878.22
2023-05-05T16:26:06.757Z,96893.97
2023-05-05T16:28:33.176Z,96885.78
2023-05-05T16:30:59.574Z,96885.81
2023-05-05T16:33:26.023Z,96888.59
2023-05-05T16:35:52.451Z,96892.66
2023-05-05T16:38:19.081Z,96895.63
2023-05-05T16:40:45.540Z,96880.34
2023-05-05T16:43:11.986Z,96885.84
2023-05-05T16:45:38.406Z,96885.53
2023-05-05T16:48:07.424Z,96887.53
2023-05-05T16:50:35.321Z,96894.34
2023-05-05T16:53:01.726Z,96890.63
2023-05-05T16:55:28.155Z,96878.56
2023-05-05T16:57:54.857Z,96880.22
2023-05-05T17:00:21.245Z,96881.88
2023-05-05T17:02:47.651Z,96879.06
2023-05-05T17:05:14.156Z,96881.00
2023-05-05T17:07:40.658Z,96888.09
2023-05-05T17:10:07.115Z,96882.75
2023-05-05T17:12:33.646Z,96880.94
2023-05-05T17:15:00.180Z,96891.34
2023-05-05T17:17:26.864Z,96888.97
2023-05-05T17:19:57.384Z,96891.72
2023-05-05T17:22:24.024Z,96892.75
2023-05-05T17:24:50.509Z,96891.81
2023-05-05T17:27:17.012Z,96886.47
2023-05-05T17:29:43.569Z,96877.03
2023-05-05T17:32:10.189Z,96880.56
2023-05-05T17:34:36.750Z,96885.38
2023-05-05T17:37:10.269Z,96883.09
2023-05-05T17:39:36.831Z,96885.94
2023-05-05T17:42:05.181Z,96887.06
2023-05-05T17:44:31.572Z,96892.84
2023-05-05T17:46:58.008Z,96893.16
2023-05-05T17:49:24.475Z,96894.44
2023-05-05T17:51:50.909Z,96897.47
2023-05-05T17:54:17.557Z,96895.88
2023-05-05T17:56:44.138Z,96904.00
2023-05-05T17:59:10.544Z,96898.28
2023-05-05T18:01:37.060Z,96904.16
2023-05-05T18:04:03.552Z,96903.63
2023-05-05T18:06:30.038Z,96897.75
2023-05-05T18:08:56.518Z,96905.13
2023-05-05T18:11:22.949Z,96910.91
2023-05-05T18:13:49.461Z,96912.97
2023-05-05T18:16:15.853Z,96908.66
2023-05-05T18:18:45.365Z,96905.16
2023-05-05T18:21:11.893Z,96904.66
2023-05-05T18:23:38.491Z,96903.84
2023-05-05T18:26:04.899Z,96918.19
2023-05-05T18:28:31.278Z,96915.00
2023-05-05T18:30:57.914Z,96914.00
2023-05-05T18:33:24.470Z,96913.13
2023-05-05T18:35:50.842Z,96921.31
2023-05-05T18:38:17.228Z,96921.59
2023-05-05T18:40:43.872Z,96921.75
2023-05-05T18:43:10.315Z,96926.03
2023-05-05T18:45:38.746Z,96933.56
2023-05-05T18:48:05.272Z,96935.28
2023-05-05T18:50:31.880Z,96937.63
2023-05-05T18:52:58.306Z,96933.44
2023-05-05T18:55:24.782Z,96940.97
2023-05-05T18:57:51.246Z,96942.44
2023-05-05T19:00:18.006Z,96940.84
2023-05-05T19:02:44.541Z,96936.91
2023-05-05T19:05:11.217Z,96942.09
2023-05-05T19:07:38.547Z,96942.81
2023-05-05T19:10:05.152Z,96953.22
2023-05-05T19:12:31.688Z,96958.94
2023-05-05T19:14:58.154Z,96958.91
2023-05-05T19:17:24.624Z,96969.19
2023-05-05T19:19:51.295Z,96962.19
2023-05-05T19:22:17.719Z,96963.88
2023-05-05T19:24:44.191Z,96964.22
2023-05-05T19:27:10.617Z,96959.31
2023-05-05T19:29:37.109Z,96956.59
2023-05-05T19:32:03.621Z,96961.34
2023-05-05T19:34:30.220Z,96960.47
2023-05-05T19:36:56.754Z,96964.75
2023-05-05T19:39:23.183Z,96967.47
2023-05-05T19:41:49.751Z,96969.72
2023-05-05T19:44:16.162Z,96972.47
2023-05-05T19:46:42.690Z,96964.59
2023-05-05T19:49:09.217Z,96963.44
2023-05-05T19:51:35.651Z,96967.56
2023-05-05T19:54:02.167Z,96971.88
2023-05-05T19:56:28.566Z,96970.22
2023-05-05T19:58:54.970Z,96971.31
2023-05-05T20:01:21.487Z,96970.41
2023-05-05T20:03:48.027Z,96975.94
2023-05-05T20:06:14.729Z,96975.41
2023-05-05T20:08:41.125Z,96976.41
2023-05-05T20:11:07.590Z,96979.13
2023-05-05T20:13:34.072Z,96982.63
2023-05-05T20:16:00.590Z,96976.47
2023-05-05T20:18:27.128Z,96975.47
2023-05-05T20:20:53.632Z,96983.91
2023-05-05T20:23:21.344Z,96980.50
2023-05-05T20:25:47.798Z,96985.94
2023-05-05T20:28:14.240Z,96979.59
2023-05-05T20:30:40.731Z,96990.78
2023-05-05T20:33:07.360Z,96990.16
2023-05-05T20:35:33.854Z,96986.94
2023-05-05T20:38:00.341Z,97001.69
2023-05-05T20:40:26.865Z,96998.97
2023-05-05T20:42:53.241Z,97010.06
2023-05-05T20:45:19.639Z,97003.94
2023-05-05T20:47:46.099Z,97002.31
2023-05-05T20:50:12.606Z,97001.41
2023-05-05T20:52:39.026Z,97000.22
2023-05-05T20:55:05.655Z,97002.53
2023-05-05T20:57:32.066Z,96993.75
2023-05-05T20:59:58.631Z,96989.09
2023-05-05T21:02:25.220Z,96990.25
2023-05-05T21:04:51.816Z,96982.50
2023-05-05T21:07:18.259Z,96982.00
2023-05-05T21:09:44.686Z,96989.50
2023-05-05T21:12:12.870Z,96985.59
2023-05-05T21:14:39.365Z,96985.28
2023-05-05T21:17:05.817Z,96980.84
2023-05-05T21:19:39.760Z,96973.91
2023-05-05T21:22:06.168Z,96981.94
2023-05-05T21:24:32.590Z,96976.44
2023-05-05T21:26:59.216Z,96975.50
2023-05-05T21:29:25.752Z,96983.63
2023-05-05T21:31:52.329Z,96982.91
2023-05-05T21:34:18.970Z,96982.28
2023-05-05T21:36:45.393Z,96979.59
2023-05-05T21:39:11.785Z,96972.06
2023-05-05T21:41:38.187Z,96975.81
2023-05-05T21:44:04.616Z,96971.41
2023-05-05T21:46:31.250Z,96973.31
2023-05-05T21:48:57.824Z,96968.81
2023-05-05T21:51:26.497Z,96972.44
2023-05-05T21:53:52.964Z,96966.03
2023-05-05T21:56:19.491Z,96975.31
2023-05-05T21:58:45.983Z,96973.88
2023-05-05T22:01:14.471Z,96965.03
2023-05-05T22:03:40.963Z,96970.38
2023-05-05T22:06:10.189Z,96968.34
2023-05-05T22:08:36.768Z,96969.47
2023-05-05T22:11:03.154Z,96970.56
2023-05-05T22:13:29.724Z,96975.50
2023-05-05T22:15:56.169Z,96979.25
2023-05-05T22:18:22.694Z,96982.22
2023-05-05T22:20:49.108Z,96973.41
2023-05-05T22:23:16.686Z,96977.50
2023-05-05T22:25:43.110Z,96985.91
2023-05-05T22:28:10.930Z,96981.31
2023-05-05T22:30:37.304Z,96980.66
2023-05-05T22:33:03.807Z,96975.25
2023-05-05T22:35:30.555Z,96977.63
2023-05-05T22:37:57.197Z,96978.25
2023-05-05T22:40:23.582Z,96979.84
2023-05-05T22:42:49.988Z,96974.38
2023-05-05T22:45:16.409Z,96965.38
2023-05-05T22:47:43.618Z,96970.75
2023-05-05T22:50:12.280Z,96967.88
2023-05-05T22:52:43.326Z,96972.63
2023-05-05T22:55:11.657Z,96975.78
2023-05-05T22:57:40.859Z,96976.50
2023-05-05T23:00:07.376Z,96973.00
2023-05-05T23:02:36.518Z,96976.88
2023-05-05T23:05:02.941Z,96980.88
2023-05-05T23:07:29.379Z,96985.13
2023-05-05T23:09:55.764Z,96978.66
2023-05-05T23:12:22.171Z,96984.13
2023-05-05T23:14:51.564Z,96985.25
2023-05-05T23:17:18.026Z,96981.84
2023-05-05T23:19:44.422Z,96980.88
2023-05-05T23:22:10.806Z,96991.19
2023-05-05T23:24:37.268Z,96984.69
2023-05-05T23:27:03.706Z,96973.75
2023-05-05T23:29:32.493Z,96973.56
2023-05-05T23:31:58.892Z,96983.66
2023-05-05T23:34:25.568Z,96981.59
2023-05-05T23:36:51.996Z,96977.00
2023-05-05T23:39:20.461Z,96980.72
2023-05-05T23:41:46.875Z,96984.38
2023-05-05T23:44:16.030Z,96988.50
2023-05-05T23:46:42.502Z,96982.06
2023-05-05T23:49:08.985Z,96982.59
2023-05-05T23:51:35.400Z,96972.66
2023-05-05T23:54:02.091Z,96978.25
2023-05-05T23:56:28.516Z,96971.09
2023-05-05T23:58:57.261Z,96976.72
